Terminal Aerodrome Forecast
Issued by NWS

Current Version | Previous Version | Text Only | Print | Product List | Glossary On
Versions: 1 2 3 4 5 6 7 8 9 10 11 12 13 14 15 16 17 18 19 20
000
FTUS43 KEAX 041100
TAFSTJ
TAF
KSTJ 041120Z 0412/0512 VRB05KT 6SM BR SKC
      TEMPO 0412/0413 1SM BR VV002
     FM041300 15005KT P6SM SKC=

USA.gov is the U.S. government's official web portal to all federal, state and local government web resources and services.